Terminal Aerodrome Forecast
Issued by NWS Billings, MT

Home | Current Version | Previous Version | Graphics & Text | Print | Product List | Glossary On
Versions: 1 2 3 4 5 6 7 8 9 10 11 12 13 14 15 16 17 18 19 20 21 22 23 24 25 26 27 28 29 30 31 32 33 34
452
FTUS45 KBYZ 220211 AAA
TAFMLS
TAF AMD
KMLS 220211Z 2202/2224 29016KT P6SM VCSH FEW100 BKN250
     FM220900 24005KT P6SM VCFG BKN150
     FM221400 26007KT P6SM VCFG SCT005 BKN050
     FM221700 24007KT P6SM BKN012
     FM221900 24007KT P6SM BKN025=

USA.gov is the U.S. government's official web portal to all federal, state and local government web resources and services.